createdAt,value
2022-09-24T00:02:16.724Z,9.82
2022-09-24T00:04:44.750Z,9.82
2022-09-24T00:07:14.099Z,9.83
2022-09-24T00:09:42.284Z,9.80
2022-09-24T00:12:13.030Z,9.88
2022-09-24T00:14:41.144Z,9.93
2022-09-24T00:17:09.173Z,9.87
2022-09-24T00:19:37.164Z,9.80
2022-09-24T00:22:05.134Z,9.72
2022-09-24T00:24:48.370Z,9.74
2022-09-24T00:27:16.415Z,9.68
2022-09-24T00:29:44.354Z,9.67
2022-09-24T00:32:13.501Z,9.68
2022-09-24T00:34:41.526Z,9.66
2022-09-24T00:37:09.479Z,9.62
2022-09-24T00:39:39.824Z,9.59
2022-09-24T00:42:07.840Z,9.51
2022-09-24T00:44:59.656Z,9.45
2022-09-24T00:47:32.282Z,9.45
2022-09-24T00:50:17.638Z,9.39
2022-09-24T00:52:49.608Z,9.29
2022-09-24T00:55:21.164Z,9.27
2022-09-24T00:57:52.026Z,9.26
2022-09-24T01:00:20.513Z,9.24
2022-09-24T01:02:51.416Z,9.21
2022-09-24T01:05:19.595Z,9.18
2022-09-24T01:07:48.322Z,9.10
2022-09-24T01:10:40.331Z,9.09
2022-09-24T01:13:20.135Z,9.08
2022-09-24T01:15:55.757Z,9.05
2022-09-24T01:18:34.676Z,9.12
2022-09-24T01:21:25.507Z,9.26
2022-09-24T01:24:08.125Z,9.19
2022-09-24T01:26:53.044Z,9.12
2022-09-24T01:29:33.768Z,9.07
2022-09-24T01:32:07.522Z,9.10
2022-09-24T01:34:42.029Z,9.05
2022-09-24T01:37:10.372Z,9.12
2022-09-24T01:39:39.368Z,9.08
2022-09-24T01:42:09.380Z,8.99
2022-09-24T01:44:42.179Z,8.95
2022-09-24T01:47:12.403Z,8.99
2022-09-24T01:49:40.412Z,8.93
2022-09-24T01:52:11.800Z,8.94
2022-09-24T01:54:50.889Z,8.84
2022-09-24T01:57:24.295Z,8.82
2022-09-24T01:59:58.752Z,9.03
2022-09-24T02:02:31.786Z,8.91
2022-09-24T02:05:04.381Z,8.88
2022-09-24T02:07:40.416Z,8.85
2022-09-24T02:10:16.005Z,8.85
2022-09-24T02:12:47.783Z,8.76
2022-09-24T02:15:23.056Z,8.72
2022-09-24T02:17:56.319Z,8.67
2022-09-24T02:20:27.271Z,8.68
2022-09-24T02:22:59.040Z,8.63
2022-09-24T02:25:32.143Z,8.59
2022-09-24T02:28:00.702Z,8.66
2022-09-24T02:30:34.322Z,8.62
2022-09-24T02:33:02.453Z,8.60
2022-09-24T02:35:29.662Z,8.56
2022-09-24T02:37:57.596Z,8.52
2022-09-24T02:40:25.744Z,8.52
2022-09-24T02:42:53.757Z,8.43
2022-09-24T02:45:21.812Z,8.40
2022-09-24T02:47:51.245Z,8.35
2022-09-24T02:50:19.175Z,8.29
2022-09-24T02:52:47.093Z,8.23
2022-09-24T02:55:15.191Z,8.16
2022-09-24T02:57:43.173Z,8.18
2022-09-24T03:00:12.663Z,8.17
2022-09-24T03:02:40.704Z,8.22
2022-09-24T03:05:11.094Z,8.21
2022-09-24T03:07:39.046Z,8.27
2022-09-24T03:10:08.237Z,8.24
2022-09-24T03:12:36.298Z,8.19
2022-09-24T03:15:05.032Z,8.14
2022-09-24T03:17:33.409Z,8.21
2022-09-24T03:20:01.414Z,8.21
2022-09-24T03:22:30.762Z,8.25
2022-09-24T03:24:58.700Z,8.19
2022-09-24T03:27:26.708Z,8.13
2022-09-24T03:30:12.007Z,8.09
2022-09-24T03:32:40.731Z,8.00
2022-09-24T03:35:10.721Z,8.04
2022-09-24T03:37:47.021Z,7.97
2022-09-24T03:40:17.062Z,7.92
2022-09-24T03:42:45.040Z,7.87
2022-09-24T03:45:12.991Z,7.87
2022-09-24T03:47:42.775Z,7.88
2022-09-24T03:50:11.670Z,7.83
2022-09-24T03:52:41.164Z,7.92
2022-09-24T03:55:10.113Z,7.91
2022-09-24T03:57:38.136Z,7.87
2022-09-24T04:00:06.919Z,7.93
2022-09-24T04:02:34.970Z,7.88
2022-09-24T04:05:02.963Z,7.96
2022-09-24T04:07:30.942Z,7.93
2022-09-24T04:10:00.342Z,7.90
2022-09-24T04:12:29.755Z,7.92
2022-09-24T04:14:57.733Z,7.81
2022-09-24T04:17:31.567Z,7.86
2022-09-24T04:19:59.535Z,7.88
2022-09-24T04:22:28.025Z,7.93
2022-09-24T04:24:56.106Z,7.94
2022-09-24T04:27:25.865Z,7.98
2022-09-24T04:29:54.589Z,8.02
2022-09-24T04:32:22.956Z,8.03
2022-09-24T04:34:50.935Z,8.09
2022-09-24T04:37:18.945Z,8.20
2022-09-24T04:39:47.009Z,8.31
2022-09-24T04:42:18.543Z,8.35
2022-09-24T04:44:49.399Z,8.36
2022-09-24T04:47:19.764Z,8.48
2022-09-24T04:49:47.736Z,8.46
2022-09-24T04:52:16.224Z,8.43
2022-09-24T04:54:47.119Z,8.52
2022-09-24T04:57:16.297Z,8.47
2022-09-24T04:59:44.473Z,8.43
2022-09-24T05:02:13.954Z,8.48
2022-09-24T05:04:42.142Z,8.68
2022-09-24T05:07:10.718Z,8.69
2022-09-24T05:09:38.934Z,8.78
2022-09-24T05:12:07.852Z,8.93
2022-09-24T05:14:36.032Z,8.88
2022-09-24T05:17:04.043Z,8.88
2022-09-24T05:19:33.599Z,8.97
2022-09-24T05:22:01.574Z,8.99
2022-09-24T05:24:29.595Z,9.05
2022-09-24T05:27:11.565Z,9.10
2022-09-24T05:29:40.821Z,9.38
2022-09-24T05:32:11.086Z,9.42
2022-09-24T05:34:41.447Z,9.47
2022-09-24T05:37:09.712Z,9.60
2022-09-24T05:39:37.762Z,9.55
2022-09-24T05:42:05.851Z,9.52
2022-09-24T05:44:33.888Z,9.74
2022-09-24T05:47:01.967Z,9.77
2022-09-24T05:49:30.060Z,9.88
2022-09-24T05:51:59.522Z,10.02
2022-09-24T05:54:27.948Z,10.15
2022-09-24T05:56:56.048Z,10.20
2022-09-24T05:59:25.021Z,10.15
2022-09-24T06:01:54.577Z,10.31
2022-09-24T06:04:22.713Z,10.38
2022-09-24T06:06:51.114Z,10.52
2022-09-24T06:09:20.804Z,10.61
2022-09-24T06:11:51.327Z,10.66
2022-09-24T06:14:19.814Z,10.79
2022-09-24T06:16:48.148Z,10.87
2022-09-24T06:19:16.482Z,11.03
2022-09-24T06:21:44.569Z,11.42
2022-09-24T06:24:12.630Z,11.52
2022-09-24T06:26:42.015Z,11.59
2022-09-24T06:29:10.133Z,11.60
2022-09-24T06:31:38.404Z,11.85
2022-09-24T06:34:06.480Z,11.84
2022-09-24T06:36:36.248Z,11.92
2022-09-24T06:39:05.026Z,12.12
2022-09-24T06:41:33.094Z,12.40
2022-09-24T06:44:03.473Z,12.44
2022-09-24T06:46:31.497Z,12.58
2022-09-24T06:48:59.588Z,12.70
2022-09-24T06:51:27.574Z,12.69
2022-09-24T06:53:55.716Z,12.82
2022-09-24T06:56:23.727Z,12.98
2022-09-24T06:58:51.721Z,13.05
2022-09-24T07:01:21.320Z,13.24
2022-09-24T07:03:49.371Z,13.23
2022-09-24T07:06:17.416Z,13.33
2022-09-24T07:08:45.464Z,13.50
2022-09-24T07:11:15.480Z,13.56
2022-09-24T07:13:43.760Z,13.68
2022-09-24T07:16:11.936Z,13.66
2022-09-24T07:18:41.643Z,13.79
2022-09-24T07:21:09.741Z,13.77
2022-09-24T07:23:37.766Z,14.07
2022-09-24T07:26:06.010Z,14.20
2022-09-24T07:28:34.539Z,14.20
2022-09-24T07:31:03.023Z,14.16
2022-09-24T07:33:33.139Z,14.26
2022-09-24T07:36:06.771Z,14.46
2022-09-24T07:38:36.402Z,14.57
2022-09-24T07:41:08.061Z,14.60
2022-09-24T07:43:36.028Z,14.69
2022-09-24T07:46:07.288Z,14.81
2022-09-24T07:48:35.480Z,14.82
2022-09-24T07:51:06.364Z,14.98
2022-09-24T07:53:34.435Z,15.17
2022-09-24T07:56:03.964Z,15.24
2022-09-24T07:58:32.271Z,15.28
2022-09-24T08:01:00.589Z,15.34
2022-09-24T08:03:28.836Z,15.29
2022-09-24T08:05:58.787Z,15.54
2022-09-24T08:08:28.431Z,15.66
2022-09-24T08:10:56.704Z,15.72
2022-09-24T08:13:27.866Z,15.85
2022-09-24T08:16:00.345Z,15.94
2022-09-24T08:18:29.778Z,15.95
2022-09-24T08:20:57.896Z,16.06
2022-09-24T08:23:28.089Z,16.20
2022-09-24T08:25:58.010Z,16.26
2022-09-24T08:28:26.179Z,16.32
2022-09-24T08:30:54.935Z,16.43
2022-09-24T08:33:23.435Z,16.41
2022-09-24T08:35:52.595Z,16.51
2022-09-24T08:38:21.133Z,16.61
2022-09-24T08:40:59.263Z,16.67
2022-09-24T08:43:39.102Z,16.89
2022-09-24T08:46:34.291Z,16.95
2022-09-24T08:49:04.721Z,16.94
2022-09-24T08:51:40.952Z,17.01
2022-09-24T08:54:13.122Z,17.14
2022-09-24T08:56:45.294Z,17.16
2022-09-24T08:59:25.584Z,17.43
2022-09-24T09:02:06.588Z,17.44
2022-09-24T09:04:42.281Z,17.66
2022-09-24T09:07:19.869Z,17.74
2022-09-24T09:09:52.003Z,17.86
2022-09-24T09:12:24.975Z,17.83
2022-09-24T09:14:59.843Z,17.73
2022-09-24T09:17:33.794Z,17.89
2022-09-24T09:20:07.529Z,17.94
2022-09-24T09:22:42.568Z,17.95
2022-09-24T09:25:20.993Z,18.10
2022-09-24T09:27:59.534Z,18.14
2022-09-24T09:30:30.158Z,18.22
2022-09-24T09:33:13.984Z,18.29
2022-09-24T09:35:50.308Z,18.34
2022-09-24T09:38:24.070Z,18.29
2022-09-24T09:41:00.069Z,18.33
2022-09-24T09:43:30.490Z,18.39
2022-09-24T09:46:13.493Z,18.55
2022-09-24T09:48:47.510Z,18.56
2022-09-24T09:51:23.344Z,18.58
2022-09-24T09:54:03.898Z,18.55
2022-09-24T09:56:36.610Z,18.55
2022-09-24T09:59:09.199Z,18.52
2022-09-24T10:01:42.089Z,18.67
2022-09-24T10:04:28.651Z,18.63
2022-09-24T10:07:06.127Z,18.82
2022-09-24T10:09:34.601Z,18.85
2022-09-24T10:12:21.380Z,18.99
2022-09-24T10:15:00.382Z,19.15
2022-09-24T10:17:32.059Z,19.24
2022-09-24T10:20:02.839Z,19.41
2022-09-24T10:22:32.192Z,19.40
2022-09-24T10:25:02.366Z,19.28
2022-09-24T10:27:35.184Z,19.32
2022-09-24T10:30:31.413Z,19.28
2022-09-24T10:33:18.779Z,19.33
2022-09-24T10:35:47.154Z,19.47
2022-09-24T10:38:20.242Z,19.49
2022-09-24T10:40:49.040Z,19.47
2022-09-24T10:43:22.504Z,19.55
2022-09-24T10:46:08.815Z,19.46
2022-09-24T10:48:44.238Z,19.25
2022-09-24T10:51:29.005Z,19.48
2022-09-24T10:54:12.940Z,19.49
2022-09-24T10:56:46.763Z,19.53
2022-09-24T10:59:32.635Z,19.54
2022-09-24T11:02:29.092Z,19.68
2022-09-24T11:05:03.481Z,19.55
2022-09-24T11:07:59.657Z,19.56
2022-09-24T11:10:52.425Z,19.69
2022-09-24T11:13:26.858Z,19.76
2022-09-24T11:16:15.929Z,19.82
2022-09-24T11:18:58.150Z,19.92
2022-09-24T11:21:49.424Z,19.98
2022-09-24T11:24:38.697Z,20.17
2022-09-24T11:27:28.049Z,20.17
2022-09-24T11:30:08.337Z,20.14
2022-09-24T11:32:42.883Z,20.27
2022-09-24T11:35:41.849Z,20.23
2022-09-24T11:38:13.343Z,20.30
2022-09-24T11:41:02.462Z,20.38
2022-09-24T11:43:57.049Z,20.33
2022-09-24T11:46:39.782Z,20.47
2022-09-24T11:49:25.352Z,20.53
2022-09-24T11:52:02.349Z,20.70
2022-09-24T11:54:34.964Z,20.63
2022-09-24T11:57:13.036Z,20.65
2022-09-24T11:59:50.107Z,20.70
2022-09-24T12:02:25.173Z,20.71
2022-09-24T12:05:02.427Z,20.71
2022-09-24T12:07:38.172Z,20.67
2022-09-24T12:10:20.449Z,20.70
2022-09-24T12:12:51.618Z,20.68
2022-09-24T12:15:24.180Z,20.73
2022-09-24T12:17:58.329Z,20.75
2022-09-24T12:20:29.524Z,20.74
2022-09-24T12:23:04.261Z,20.75
2022-09-24T12:25:40.223Z,20.69
2022-09-24T12:28:13.367Z,20.63
2022-09-24T12:31:08.703Z,20.65
2022-09-24T12:33:46.930Z,20.73
2022-09-24T12:36:21.676Z,20.85
2022-09-24T12:38:55.011Z,20.84
2022-09-24T12:41:31.433Z,20.81
2022-09-24T12:44:05.269Z,20.85
2022-09-24T12:46:40.450Z,20.87
2022-09-24T12:49:20.859Z,20.86
2022-09-24T12:51:48.956Z,20.90
2022-09-24T12:54:29.583Z,20.90
2022-09-24T12:57:10.226Z,20.93
2022-09-24T12:59:49.391Z,20.99
2022-09-24T13:02:20.499Z,20.90
2022-09-24T13:05:04.472Z,20.88
2022-09-24T13:07:35.232Z,20.79
2022-09-24T13:10:26.535Z,20.83
2022-09-24T13:12:54.924Z,20.88
2022-09-24T13:15:28.870Z,20.87
2022-09-24T13:18:06.877Z,20.87
2022-09-24T13:20:37.667Z,20.92
2022-09-24T13:23:32.298Z,20.85
2022-09-24T13:26:05.063Z,20.87
2022-09-24T13:28:38.806Z,20.89
2022-09-24T13:31:23.848Z,20.95
2022-09-24T13:33:55.035Z,20.98
2022-09-24T13:36:31.263Z,21.01
2022-09-24T13:39:04.613Z,21.02
2022-09-24T13:41:44.115Z,21.05
2022-09-24T13:44:21.470Z,21.09
2022-09-24T13:46:55.556Z,20.98
2022-09-24T13:49:25.912Z,20.99
2022-09-24T13:52:06.393Z,21.01
2022-09-24T13:54:37.779Z,21.00
2022-09-24T13:57:14.017Z,21.02
2022-09-24T13:59:42.112Z,20.94
2022-09-24T14:02:27.680Z,20.83
2022-09-24T14:04:59.416Z,20.84
2022-09-24T14:07:28.820Z,20.76
2022-09-24T14:10:05.132Z,20.78
2022-09-24T14:12:34.906Z,20.81
2022-09-24T14:15:14.588Z,20.77
2022-09-24T14:17:42.626Z,20.65
2022-09-24T14:20:15.872Z,20.58
2022-09-24T14:22:47.595Z,20.58
2022-09-24T14:25:20.743Z,20.63
2022-09-24T14:27:52.712Z,20.63
2022-09-24T14:30:23.344Z,20.60
2022-09-24T14:32:55.945Z,20.55
2022-09-24T14:35:31.721Z,20.53
2022-09-24T14:38:06.728Z,20.52
2022-09-24T14:40:44.076Z,20.45
2022-09-24T14:43:27.381Z,20.39
2022-09-24T14:46:05.348Z,20.35
2022-09-24T14:48:35.703Z,20.32
2022-09-24T14:51:03.786Z,20.27
2022-09-24T14:53:34.837Z,20.40
2022-09-24T14:56:20.308Z,20.36
2022-09-24T14:58:49.764Z,20.33
2022-09-24T15:01:20.434Z,20.22
2022-09-24T15:03:51.673Z,20.24
2022-09-24T15:06:23.958Z,20.18
2022-09-24T15:09:00.637Z,20.04
2022-09-24T15:11:31.494Z,19.94
2022-09-24T15:14:03.305Z,19.87
2022-09-24T15:16:34.370Z,19.78
2022-09-24T15:19:20.654Z,19.73
2022-09-24T15:21:50.054Z,19.70
2022-09-24T15:24:18.463Z,19.66
2022-09-24T15:26:48.332Z,19.57
2022-09-24T15:29:24.942Z,19.49
2022-09-24T15:31:53.611Z,19.45
2022-09-24T15:34:22.166Z,19.39
2022-09-24T15:36:54.138Z,19.32
2022-09-24T15:39:23.431Z,19.23
2022-09-24T15:41:51.599Z,19.13
2022-09-24T15:44:27.179Z,19.04
2022-09-24T15:46:58.217Z,18.97
2022-09-24T15:49:26.491Z,18.90
2022-09-24T15:51:58.440Z,18.85
2022-09-24T15:54:26.565Z,18.76
2022-09-24T15:56:55.194Z,18.67
2022-09-24T15:59:24.847Z,18.59
2022-09-24T16:01:56.668Z,18.53
2022-09-24T16:04:25.220Z,18.45
2022-09-24T16:06:53.306Z,18.38
2022-09-24T16:09:21.407Z,18.29
2022-09-24T16:11:49.369Z,18.20
2022-09-24T16:14:17.396Z,18.12
2022-09-24T16:16:46.966Z,18.04
2022-09-24T16:19:14.902Z,17.96
2022-09-24T16:21:42.997Z,17.89
2022-09-24T16:24:11.004Z,17.82
2022-09-24T16:26:39.207Z,17.75
2022-09-24T16:29:10.494Z,17.71
2022-09-24T16:31:38.910Z,17.64
2022-09-24T16:34:08.442Z,17.57
2022-09-24T16:36:36.478Z,17.49
2022-09-24T16:39:05.535Z,17.42
2022-09-24T16:41:34.627Z,17.34
2022-09-24T16:44:03.055Z,17.28
2022-09-24T16:46:31.212Z,17.22
2022-09-24T16:48:59.375Z,17.14
2022-09-24T16:51:28.862Z,17.08
2022-09-24T16:53:58.270Z,17.02
2022-09-24T16:56:26.557Z,16.98
2022-09-24T16:58:54.548Z,16.92
2022-09-24T17:01:24.040Z,16.86
2022-09-24T17:03:53.316Z,16.81
2022-09-24T17:06:23.198Z,16.76
2022-09-24T17:09:10.707Z,16.71
2022-09-24T17:11:40.508Z,16.63
2022-09-24T17:14:09.111Z,16.57
2022-09-24T17:16:37.506Z,16.51
2022-09-24T17:19:08.040Z,16.44
2022-09-24T17:21:36.353Z,16.36
2022-09-24T17:24:06.280Z,16.28
2022-09-24T17:26:34.858Z,16.21
2022-09-24T17:29:03.132Z,16.14
2022-09-24T17:31:31.581Z,16.09
2022-09-24T17:34:01.251Z,16.01
2022-09-24T17:36:31.077Z,15.96
2022-09-24T17:38:59.445Z,15.92
2022-09-24T17:41:30.311Z,15.88
2022-09-24T17:43:59.815Z,15.86
2022-09-24T17:46:30.264Z,15.82
2022-09-24T17:48:59.920Z,15.79
2022-09-24T17:51:32.671Z,15.75
2022-09-24T17:54:02.266Z,15.68
2022-09-24T17:56:34.541Z,15.65
2022-09-24T17:59:02.839Z,15.64
2022-09-24T18:01:36.044Z,15.61
2022-09-24T18:04:07.176Z,15.62
2022-09-24T18:06:38.476Z,15.60
2022-09-24T18:09:07.137Z,15.55
2022-09-24T18:11:41.032Z,15.50
2022-09-24T18:14:14.266Z,15.46
2022-09-24T18:16:43.550Z,15.42
2022-09-24T18:19:15.186Z,15.35
2022-09-24T18:21:44.048Z,15.28
2022-09-24T18:24:12.723Z,15.23
2022-09-24T18:26:43.407Z,15.19
2022-09-24T18:29:15.890Z,15.15
2022-09-24T18:31:44.956Z,15.15
2022-09-24T18:34:15.789Z,15.09
2022-09-24T18:36:46.039Z,15.07
2022-09-24T18:39:23.911Z,15.10
2022-09-24T18:41:57.642Z,15.01
2022-09-24T18:44:26.534Z,14.95
2022-09-24T18:46:54.705Z,14.91
2022-09-24T18:49:28.315Z,14.92
2022-09-24T18:51:56.929Z,14.88
2022-09-24T18:54:26.648Z,14.87
2022-09-24T18:56:56.769Z,14.90
2022-09-24T18:59:26.121Z,14.91
2022-09-24T19:01:54.823Z,14.98
2022-09-24T19:04:23.817Z,14.94
2022-09-24T19:06:51.938Z,14.90
2022-09-24T19:09:21.149Z,14.90
2022-09-24T19:11:49.966Z,14.92
2022-09-24T19:14:19.757Z,14.95
2022-09-24T19:16:48.664Z,15.03
2022-09-24T19:19:17.450Z,15.06
2022-09-24T19:21:48.737Z,15.01
2022-09-24T19:24:16.974Z,14.94
2022-09-24T19:26:45.502Z,14.85
2022-09-24T19:29:14.177Z,14.92
2022-09-24T19:31:49.796Z,14.84
2022-09-24T19:34:21.036Z,14.73
2022-09-24T19:37:05.755Z,14.64
2022-09-24T19:39:34.100Z,14.60
2022-09-24T19:42:02.380Z,14.49
2022-09-24T19:44:30.754Z,14.39
2022-09-24T19:47:03.433Z,14.31
2022-09-24T19:49:32.011Z,14.24
2022-09-24T19:52:00.057Z,14.18
2022-09-24T19:54:28.656Z,14.12
2022-09-24T19:56:57.495Z,14.04
2022-09-24T19:59:25.822Z,13.98
2022-09-24T20:01:56.183Z,13.92
2022-09-24T20:04:25.789Z,13.90
2022-09-24T20:06:54.936Z,14.01
2022-09-24T20:09:23.140Z,13.89
2022-09-24T20:11:52.454Z,13.77
2022-09-24T20:14:22.703Z,13.65
2022-09-24T20:16:50.989Z,13.56
2022-09-24T20:19:20.270Z,13.49
2022-09-24T20:21:49.939Z,13.43
2022-09-24T20:24:17.990Z,13.38
2022-09-24T20:27:03.813Z,13.34
2022-09-24T20:29:31.929Z,13.27
2022-09-24T20:32:00.048Z,13.22
2022-09-24T20:34:33.887Z,13.18
2022-09-24T20:37:05.680Z,13.13
2022-09-24T20:39:34.022Z,13.08
2022-09-24T20:42:03.861Z,13.04
2022-09-24T20:44:32.417Z,13.00
2022-09-24T20:47:00.758Z,12.94
2022-09-24T20:49:30.045Z,12.89
2022-09-24T20:51:58.571Z,12.84
2022-09-24T20:54:29.173Z,12.78
2022-09-24T20:56:57.495Z,12.73
2022-09-24T20:59:26.757Z,12.68
2022-09-24T21:01:55.443Z,12.63
2022-09-24T21:04:34.870Z,12.57
2022-09-24T21:07:03.094Z,12.49
2022-09-24T21:09:32.679Z,12.47
2022-09-24T21:12:01.516Z,12.44
2022-09-24T21:14:29.745Z,12.39
2022-09-24T21:16:57.918Z,12.35
2022-09-24T21:19:25.907Z,12.31
2022-09-24T21:21:53.988Z,12.30
2022-09-24T21:24:25.140Z,12.33
2022-09-24T21:26:59.290Z,12.29
2022-09-24T21:29:27.269Z,12.25
2022-09-24T21:31:55.276Z,12.24
2022-09-24T21:34:23.321Z,12.19
2022-09-24T21:36:53.161Z,12.12
2022-09-24T21:39:23.820Z,12.01
2022-09-24T21:41:53.739Z,11.97
2022-09-24T21:44:23.130Z,11.92
2022-09-24T21:46:52.730Z,11.87
2022-09-24T21:49:21.368Z,11.84
2022-09-24T21:51:49.524Z,11.90
2022-09-24T21:54:19.318Z,11.83
2022-09-24T21:56:47.755Z,11.81
2022-09-24T21:59:34.000Z,11.67
2022-09-24T22:02:03.631Z,11.59
2022-09-24T22:04:33.468Z,11.54
2022-09-24T22:07:01.701Z,11.49
2022-09-24T22:09:29.924Z,11.44
2022-09-24T22:12:00.230Z,11.39
2022-09-24T22:14:28.872Z,11.36
2022-09-24T22:16:57.587Z,11.30
2022-09-24T22:19:27.156Z,11.28
2022-09-24T22:21:55.358Z,11.25
2022-09-24T22:24:23.532Z,11.23
2022-09-24T22:26:51.551Z,11.14
2022-09-24T22:29:19.542Z,11.01
2022-09-24T22:31:47.557Z,10.92
2022-09-24T22:34:41.296Z,10.88
2022-09-24T22:37:11.199Z,10.87
2022-09-24T22:39:39.150Z,10.81
2022-09-24T22:42:07.843Z,10.80
2022-09-24T22:44:35.841Z,10.80
2022-09-24T22:47:03.890Z,10.71
2022-09-24T22:49:32.754Z,10.69
2022-09-24T22:52:00.793Z,10.68
2022-09-24T22:54:30.648Z,10.70
2022-09-24T22:56:58.707Z,10.64
2022-09-24T22:59:26.728Z,10.59
2022-09-24T23:01:54.797Z,10.55
2022-09-24T23:04:22.940Z,10.51
2022-09-24T23:06:51.019Z,10.52
2022-09-24T23:09:20.647Z,10.49
2022-09-24T23:11:50.148Z,10.48
2022-09-24T23:14:18.268Z,10.44
2022-09-24T23:16:46.835Z,10.43
2022-09-24T23:19:17.543Z,10.42
2022-09-24T23:21:46.367Z,10.43
2022-09-24T23:24:16.018Z,10.41
2022-09-24T23:26:44.727Z,10.37
2022-09-24T23:29:15.130Z,10.36
2022-09-24T23:31:43.288Z,10.32
2022-09-24T23:34:13.631Z,10.29
2022-09-24T23:36:42.590Z,10.23
2022-09-24T23:39:11.365Z,10.23
2022-09-24T23:41:39.362Z,10.21
2022-09-24T23:44:07.639Z,10.21
2022-09-24T23:46:37.087Z,10.23
2022-09-24T23:49:05.542Z,10.25
2022-09-24T23:51:33.674Z,10.20
2022-09-24T23:54:01.683Z,10.16
2022-09-24T23:56:29.789Z,10.11
2022-09-24T23:58:58.296Z,10.07
